Time;durP1;ratioP1;P1;durP2;ratioP2;P2;SDS_P1;SDS_P2;PMS_P1;PMS_P2;Temp;Humidity;BMP_temperature;BMP_pressure;BME280_temperature;BME280_humidity;BME280_pressure;Samples;Min_cycle;Max_cycle;Signal;HPM_P1;HPM_P2
2022/06/10 00:00:37;;;;;;;16.80;5.60;;;;;;;;;;5079141;28;20047;-63
2022/06/10 00:03:04;;;;;;;12.73;5.43;;;;;;;;;;5080485;28;20042;-63
2022/06/10 00:05:31;;;;;;;14.65;5.15;;;;;;;;;;5079117;28;20056;-63
2022/06/10 00:07:58;;;;;;;13.30;5.07;;;;;;;;;;5075452;28;20036;-63
2022/06/10 00:10:25;;;;;;;15.10;5.95;;;;;;;;;;5079931;28;20041;-63
2022/06/10 00:12:52;;;;;;;13.38;5.50;;;;;;;;;;5077545;28;20059;-62
2022/06/10 00:15:18;;;;;;;17.90;5.75;;;;;;;;;;5081695;28;20060;-63
2022/06/10 00:17:45;;;;;;;15.43;5.72;;;;;;;;;;5062563;28;20256;-63
2022/06/10 00:20:13;;;;;;;13.15;5.35;;;;;;;;;;5080482;28;20041;-63
2022/06/10 00:22:39;;;;;;;16.90;5.57;;;;;;;;;;5079205;28;20044;-63
2022/06/10 00:25:06;;;;;;;11.55;5.30;;;;;;;;;;5077479;28;20488;-63
2022/06/10 00:27:32;;;;;;;15.45;6.00;;;;;;;;;;5079394;28;20051;-63
2022/06/10 00:29:58;;;;;;;13.80;5.80;;;;;;;;;;5084129;28;20032;-63
2022/06/10 00:32:24;;;;;;;14.52;5.90;;;;;;;;;;5077552;28;20028;-62
2022/06/10 00:34:50;;;;;;;15.27;6.10;;;;;;;;;;5082106;28;20156;-63
2022/06/10 00:37:17;;;;;;;13.15;5.55;;;;;;;;;;5065637;28;20056;-63
2022/06/10 00:39:43;;;;;;;22.63;6.25;;;;;;;;;;5083977;28;20079;-63
2022/06/10 00:42:11;;;;;;;17.17;6.15;;;;;;;;;;5078622;28;20036;-63
2022/06/10 00:44:46;;;;;;;13.60;6.10;;;;;;;;;;5091469;28;20051;-63
2022/06/10 00:47:21;;;;;;;16.15;7.00;;;;;;;;;;5099769;28;20518;-63
2022/06/10 00:49:50;;;;;;;14.02;5.35;;;;;;;;;;5103661;28;20039;-63
2022/06/10 00:52:23;;;;;;;22.13;6.55;;;;;;;;;;5103360;28;20071;-63
2022/06/10 00:54:51;;;;;;;13.80;5.47;;;;;;;;;;5086414;28;20062;-63
2022/06/10 00:57:25;;;;;;;14.05;5.50;;;;;;;;;;5098956;28;20075;-63
2022/06/10 00:59:53;;;;;;;14.73;5.18;;;;;;;;;;5102432;28;20043;-63
2022/06/10 01:02:21;;;;;;;13.25;5.15;;;;;;;;;;5100116;28;20044;-63
2022/06/10 01:04:47;;;;;;;14.80;5.05;;;;;;;;;;5099225;28;20447;-63
2022/06/10 01:07:16;;;;;;;12.48;5.53;;;;;;;;;;5100088;28;20051;-63
2022/06/10 01:09:43;;;;;;;15.65;5.35;;;;;;;;;;5101620;28;20071;-61
2022/06/10 01:12:09;;;;;;;18.00;5.38;;;;;;;;;;5081394;28;20036;-63
2022/06/10 01:14:53;;;;;;;15.10;4.70;;;;;;;;;;5091653;28;20044;-63
2022/06/10 01:17:27;;;;;;;15.65;4.70;;;;;;;;;;5100870;28;20112;-63
2022/06/10 01:19:54;;;;;;;11.57;4.72;;;;;;;;;;5097851;28;20039;-63
2022/06/10 01:22:37;;;;;;;13.65;5.07;;;;;;;;;;5101887;28;20082;-62
2022/06/10 01:25:17;;;;;;;12.23;4.57;;;;;;;;;;5102803;28;20139;-63
2022/06/10 01:28:04;;;;;;;15.68;5.13;;;;;;;;;;5099945;28;20056;-63
2022/06/10 01:30:44;;;;;;;13.82;5.07;;;;;;;;;;5092964;28;20098;-63
2022/06/10 01:33:11;;;;;;;17.27;5.00;;;;;;;;;;5101717;28;20174;-62
2022/06/10 01:35:38;;;;;;;11.48;5.35;;;;;;;;;;5098687;28;20491;-63
2022/06/10 01:38:04;;;;;;;10.43;4.53;;;;;;;;;;5101245;28;20463;-63
2022/06/10 01:40:34;;;;;;;16.88;5.53;;;;;;;;;;5101548;28;20411;-63
2022/06/10 01:43:01;;;;;;;12.10;4.57;;;;;;;;;;5084505;28;20047;-63
2022/06/10 01:45:27;;;;;;;12.82;4.70;;;;;;;;;;5098874;28;20352;-63
2022/06/10 01:48:03;;;;;;;14.73;5.00;;;;;;;;;;5058468;28;20127;-63
2022/06/10 01:50:35;;;;;;;15.30;4.75;;;;;;;;;;5066948;28;20047;-62
2022/06/10 01:53:05;;;;;;;12.15;4.82;;;;;;;;;;5077900;28;20071;-62
2022/06/10 01:55:35;;;;;;;14.93;5.95;;;;;;;;;;5090624;28;20051;-63
2022/06/10 01:58:08;;;;;;;9.88;5.45;;;;;;;;;;5077179;28;20040;-63
2022/06/10 02:00:35;;;;;;;13.37;4.80;;;;;;;;;;5099186;28;20049;-63
2022/06/10 02:03:02;;;;;;;18.58;5.63;;;;;;;;;;5096845;28;20328;-63
2022/06/10 02:05:29;;;;;;;13.27;5.28;;;;;;;;;;5082131;28;20131;-63
2022/06/10 02:07:59;;;;;;;14.10;4.93;;;;;;;;;;5076919;28;21862;-63
2022/06/10 02:10:28;;;;;;;17.70;5.18;;;;;;;;;;5081283;28;20368;-62
2022/06/10 02:12:58;;;;;;;14.07;5.22;;;;;;;;;;5099785;28;20036;-63
2022/06/10 02:15:33;;;;;;;17.52;5.95;;;;;;;;;;5098436;28;20055;-63
2022/06/10 02:18:03;;;;;;;12.02;5.22;;;;;;;;;;5097610;28;20166;-63
2022/06/10 02:20:31;;;;;;;16.27;5.25;;;;;;;;;;5083203;28;20101;-63
2022/06/10 02:22:59;;;;;;;13.80;5.55;;;;;;;;;;5057956;28;20055;-63
2022/06/10 02:25:27;;;;;;;13.40;5.80;;;;;;;;;;5087761;28;20051;-63
2022/06/10 02:27:55;;;;;;;10.23;5.43;;;;;;;;;;5099623;28;20684;-63
2022/06/10 02:30:25;;;;;;;18.52;5.40;;;;;;;;;;5100293;28;20397;-63
2022/06/10 02:32:52;;;;;;;14.05;5.07;;;;;;;;;;5092662;28;20410;-63
2022/06/10 02:35:18;;;;;;;23.98;6.05;;;;;;;;;;5100635;28;20044;-63
2022/06/10 02:37:44;;;;;;;16.77;5.80;;;;;;;;;;5074044;28;20047;-63
2022/06/10 02:40:19;;;;;;;11.60;5.75;;;;;;;;;;5081377;28;20055;-63
2022/06/10 02:42:52;;;;;;;14.65;5.78;;;;;;;;;;5094593;28;20105;-63
2022/06/10 02:45:33;;;;;;;21.80;7.10;;;;;;;;;;5099533;28;20060;-63
2022/06/10 02:48:03;;;;;;;15.93;6.40;;;;;;;;;;5093473;28;20067;-63
2022/06/10 02:50:29;;;;;;;15.75;6.30;;;;;;;;;;5096331;28;20055;-63
2022/06/10 02:52:56;;;;;;;16.58;6.57;;;;;;;;;;5096666;28;20184;-63
2022/06/10 02:55:24;;;;;;;14.43;6.05;;;;;;;;;;5099920;28;20468;-63
2022/06/10 03:03:37;;;;;;;18.33;5.85;;;;;;;;;;5098226;28;20039;-63
2022/06/10 03:06:08;;;;;;;18.05;6.30;;;;;;;;;;5096460;28;20040;-63
2022/06/10 03:08:44;;;;;;;13.25;6.60;;;;;;;;;;5076424;28;20058;-63
2022/06/10 03:11:12;;;;;;;22.63;7.30;;;;;;;;;;5100122;28;20136;-62
2022/06/10 03:13:42;;;;;;;19.45;7.35;;;;;;;;;;5094849;28;20111;-62
2022/06/10 03:16:19;;;;;;;18.63;7.38;;;;;;;;;;5095759;28;20388;-63
2022/06/10 03:18:59;;;;;;;20.67;6.72;;;;;;;;;;5078387;28;20574;-63
2022/06/10 03:21:28;;;;;;;17.73;7.20;;;;;;;;;;5096186;28;20040;-63
2022/06/10 03:24:01;;;;;;;17.85;7.43;;;;;;;;;;5063895;28;20468;-63
2022/06/10 03:26:40;;;;;;;18.63;8.27;;;;;;;;;;5096374;28;20127;-63
2022/06/10 03:29:13;;;;;;;19.15;8.15;;;;;;;;;;5077067;28;20073;-63
2022/06/10 03:31:41;;;;;;;21.13;7.90;;;;;;;;;;5076037;28;20062;-63
2022/06/10 03:34:13;;;;;;;17.98;7.13;;;;;;;;;;5097756;28;20402;-63
2022/06/10 03:36:40;;;;;;;17.60;6.80;;;;;;;;;;5097969;28;20467;-63
2022/06/10 03:39:07;;;;;;;19.27;6.63;;;;;;;;;;5080642;28;20166;-63
2022/06/10 03:41:37;;;;;;;24.20;6.70;;;;;;;;;;5100012;28;20213;-63
2022/06/10 03:44:07;;;;;;;15.48;6.20;;;;;;;;;;5097830;28;20191;-63
2022/06/10 03:46:34;;;;;;;18.35;6.95;;;;;;;;;;5097104;28;20063;-63
2022/06/10 03:49:04;;;;;;;17.25;6.15;;;;;;;;;;5097419;28;20043;-63
2022/06/10 03:51:32;;;;;;;18.63;7.25;;;;;;;;;;5095013;28;22138;-63
2022/06/10 03:53:58;;;;;;;20.35;6.60;;;;;;;;;;5096178;28;20043;-63
2022/06/10 03:56:25;;;;;;;17.08;5.68;;;;;;;;;;5098143;28;20048;-63
2022/06/10 03:58:51;;;;;;;13.00;5.43;;;;;;;;;;5079970;28;20955;-63
2022/06/10 04:01:18;;;;;;;21.15;6.03;;;;;;;;;;5077578;28;20051;-63
2022/06/10 04:03:44;;;;;;;23.88;5.80;;;;;;;;;;5097769;28;20031;-63
2022/06/10 04:06:11;;;;;;;18.80;5.93;;;;;;;;;;5101091;28;20044;-63
2022/06/10 04:08:37;;;;;;;19.50;5.80;;;;;;;;;;5099096;28;20525;-63
2022/06/10 04:11:03;;;;;;;19.42;6.78;;;;;;;;;;5097841;28;21307;-63
2022/06/10 04:13:30;;;;;;;19.15;5.65;;;;;;;;;;5093827;28;20043;-63
2022/06/10 04:15:56;;;;;;;17.45;6.10;;;;;;;;;;5096545;28;20371;-63
2022/06/10 04:18:22;;;;;;;18.33;5.85;;;;;;;;;;5082369;28;20555;-63
2022/06/10 04:20:48;;;;;;;17.58;6.10;;;;;;;;;;5092522;28;20441;-63
2022/06/10 04:23:15;;;;;;;14.15;5.90;;;;;;;;;;5073558;28;20051;-63
2022/06/10 04:25:43;;;;;;;18.02;5.93;;;;;;;;;;5098925;28;20055;-63
2022/06/10 04:28:10;;;;;;;17.58;5.47;;;;;;;;;;5098716;28;20070;-63
2022/06/10 04:30:38;;;;;;;17.02;5.30;;;;;;;;;;5100047;28;20097;-63
2022/06/10 04:33:04;;;;;;;16.88;5.43;;;;;;;;;;5080831;28;20040;-63
2022/06/10 04:35:32;;;;;;;19.00;5.72;;;;;;;;;;5099829;28;20415;-63
2022/06/10 04:37:58;;;;;;;18.02;5.40;;;;;;;;;;5098744;28;20488;-62
2022/06/10 04:40:26;;;;;;;16.05;5.53;;;;;;;;;;5077481;28;20139;-63
2022/06/10 04:42:53;;;;;;;16.30;5.50;;;;;;;;;;5098059;28;20051;-63
2022/06/10 04:45:20;;;;;;;15.30;5.10;;;;;;;;;;5095175;28;20062;-63
2022/06/10 04:47:47;;;;;;;18.55;5.30;;;;;;;;;;5079674;28;20411;-63
2022/06/10 04:50:14;;;;;;;18.80;5.97;;;;;;;;;;5093357;28;20143;-63
2022/06/10 04:52:40;;;;;;;25.13;6.15;;;;;;;;;;5092190;28;20039;-63
2022/06/10 04:55:08;;;;;;;20.10;5.05;;;;;;;;;;5100149;28;20054;-63
2022/06/10 04:57:35;;;;;;;19.85;4.85;;;;;;;;;;5085260;28;20044;-62
2022/06/10 05:00:01;;;;;;;19.90;5.13;;;;;;;;;;5100668;28;20438;-63
2022/06/10 05:02:28;;;;;;;16.35;4.22;;;;;;;;;;5099731;28;20047;-63
2022/06/10 05:04:54;;;;;;;13.98;5.10;;;;;;;;;;5099813;28;21650;-63
2022/06/10 05:07:20;;;;;;;16.90;4.78;;;;;;;;;;5099026;28;20373;-63
2022/06/10 05:09:47;;;;;;;18.40;5.18;;;;;;;;;;5102441;28;20043;-64
2022/06/10 05:12:13;;;;;;;16.38;5.78;;;;;;;;;;5100878;28;20047;-63
2022/06/10 05:14:39;;;;;;;16.67;5.03;;;;;;;;;;5093738;28;20480;-63
2022/06/10 05:17:06;;;;;;;21.80;6.20;;;;;;;;;;5083948;28;20166;-63
2022/06/10 05:19:32;;;;;;;19.80;5.28;;;;;;;;;;5077412;28;20062;-63
2022/06/10 05:21:58;;;;;;;21.45;5.40;;;;;;;;;;5076925;28;20052;-63
2022/06/10 05:24:24;;;;;;;23.33;5.93;;;;;;;;;;5099725;28;20076;-63
2022/06/10 05:26:50;;;;;;;16.92;6.00;;;;;;;;;;5101523;28;20048;-63
2022/06/10 05:29:16;;;;;;;18.83;5.78;;;;;;;;;;5103986;28;20470;-61
2022/06/10 05:31:43;;;;;;;23.08;5.78;;;;;;;;;;5105767;28;20066;-63
2022/06/10 05:36:54;;;;;;;25.25;6.03;;;;;;;;;;5105641;28;20036;-64
2022/06/10 05:39:20;;;;;;;18.08;5.57;;;;;;;;;;5108525;28;20039;-64
2022/06/10 05:42:04;;;;;;;21.30;5.63;;;;;;;;;;5104818;28;20040;-64
2022/06/10 05:44:31;;;;;;;21.38;5.75;;;;;;;;;;5104674;28;20128;-64
2022/06/10 05:46:57;;;;;;;14.32;6.25;;;;;;;;;;5104207;28;20119;-64
2022/06/10 05:49:24;;;;;;;22.23;7.45;;;;;;;;;;5105414;28;20101;-64
2022/06/10 05:51:51;;;;;;;20.77;5.50;;;;;;;;;;5107533;28;20067;-64
2022/06/10 05:54:17;;;;;;;20.05;5.68;;;;;;;;;;5087401;28;20044;-63
2022/06/10 05:56:44;;;;;;;19.10;5.43;;;;;;;;;;5103402;28;20106;-63
2022/06/10 05:59:11;;;;;;;24.67;6.60;;;;;;;;;;5102642;28;20047;-63
2022/06/10 06:01:37;;;;;;;22.65;5.82;;;;;;;;;;5107246;28;20040;-64
2022/06/10 06:04:04;;;;;;;17.02;5.60;;;;;;;;;;5084608;28;20127;-63
2022/06/10 06:06:30;;;;;;;17.17;6.38;;;;;;;;;;5083701;28;20292;-63
2022/06/10 06:08:56;;;;;;;16.48;5.68;;;;;;;;;;5105977;28;20043;-64
2022/06/10 06:11:22;;;;;;;20.52;7.78;;;;;;;;;;5104146;28;20040;-63
2022/06/10 06:13:49;;;;;;;26.45;7.53;;;;;;;;;;5111019;28;20436;-64
2022/06/10 06:16:16;;;;;;;19.08;6.03;;;;;;;;;;5105740;28;20043;-64
2022/06/10 06:18:42;;;;;;;24.98;7.45;;;;;;;;;;5101293;28;20040;-64
2022/06/10 06:21:09;;;;;;;21.38;7.53;;;;;;;;;;5107083;28;20031;-64
2022/06/10 06:23:35;;;;;;;19.23;6.85;;;;;;;;;;5106142;28;20049;-63
2022/06/10 06:26:03;;;;;;;21.23;7.50;;;;;;;;;;5108976;28;20539;-64
2022/06/10 06:28:29;;;;;;;19.73;8.15;;;;;;;;;;5107922;28;20052;-63
2022/06/10 06:30:56;;;;;;;24.63;9.77;;;;;;;;;;5110313;28;20045;-64
2022/06/10 06:33:23;;;;;;;19.67;8.23;;;;;;;;;;5104776;28;20081;-64
2022/06/10 06:35:51;;;;;;;21.35;9.35;;;;;;;;;;5107014;28;20051;-64
2022/06/10 06:38:17;;;;;;;31.38;9.52;;;;;;;;;;5085022;28;20043;-62
2022/06/10 06:40:43;;;;;;;24.00;9.68;;;;;;;;;;5103291;28;20040;-62
2022/06/10 06:43:10;;;;;;;24.65;10.57;;;;;;;;;;5090078;28;20061;-62
2022/06/10 06:45:37;;;;;;;25.58;9.63;;;;;;;;;;5107144;28;20161;-62
2022/06/10 06:48:04;;;;;;;29.63;10.25;;;;;;;;;;5107854;28;20068;-62
2022/06/10 06:50:31;;;;;;;27.17;10.18;;;;;;;;;;5105144;28;20078;-63
2022/06/10 06:52:57;;;;;;;25.23;9.75;;;;;;;;;;5108993;28;20058;-64
2022/06/10 06:55:23;;;;;;;29.33;9.88;;;;;;;;;;5084148;28;20047;-63
2022/06/10 06:57:50;;;;;;;23.15;9.80;;;;;;;;;;5106781;28;20446;-63
2022/06/10 07:00:17;;;;;;;37.67;10.00;;;;;;;;;;5103933;28;20044;-63
2022/06/10 07:02:43;;;;;;;22.50;12.00;;;;;;;;;;5101040;28;20032;-63
2022/06/10 07:05:12;;;;;;;21.27;10.15;;;;;;;;;;5104136;28;20553;-62
2022/06/10 07:07:38;;;;;;;25.83;10.25;;;;;;;;;;5084847;28;20044;-61
2022/06/10 07:10:05;;;;;;;25.88;10.98;;;;;;;;;;5108698;28;20039;-61
2022/06/10 07:12:31;;;;;;;23.05;10.65;;;;;;;;;;5106426;28;20035;-61
2022/06/10 07:14:57;;;;;;;35.05;12.18;;;;;;;;;;5107518;28;20127;-62
2022/06/10 07:17:23;;;;;;;28.52;12.43;;;;;;;;;;5107584;28;20045;-69
2022/06/10 07:19:51;;;;;;;25.92;12.23;;;;;;;;;;5070820;28;20420;-62
2022/06/10 07:22:18;;;;;;;26.33;12.60;;;;;;;;;;5107914;28;20051;-62
2022/06/10 07:24:44;;;;;;;32.35;15.05;;;;;;;;;;5108254;28;20058;-62
2022/06/10 07:27:11;;;;;;;27.50;13.93;;;;;;;;;;5087142;28;20039;-62
2022/06/10 07:29:37;;;;;;;28.60;13.32;;;;;;;;;;5085573;28;20036;-62
2022/06/10 07:32:04;;;;;;;28.42;14.13;;;;;;;;;;5086299;28;20086;-61
2022/06/10 07:34:30;;;;;;;26.63;14.75;;;;;;;;;;5107198;28;20035;-62
2022/06/10 07:36:56;;;;;;;26.15;15.07;;;;;;;;;;5102449;28;20036;-63
2022/06/10 07:39:22;;;;;;;26.83;16.10;;;;;;;;;;5106587;28;20040;-63
2022/06/10 07:42:03;;;;;;;30.30;17.45;;;;;;;;;;5102907;28;20143;-64
2022/06/10 07:44:49;;;;;;;38.60;18.40;;;;;;;;;;5104463;28;20550;-64
2022/06/10 07:47:16;;;;;;;33.92;17.88;;;;;;;;;;5106586;28;20050;-64
2022/06/10 07:49:43;;;;;;;31.55;18.27;;;;;;;;;;5105775;28;20143;-64
2022/06/10 07:52:09;;;;;;;25.63;17.35;;;;;;;;;;5104995;28;20032;-64
2022/06/10 07:54:36;;;;;;;31.30;16.70;;;;;;;;;;5104042;28;20118;-64
2022/06/10 07:57:03;;;;;;;29.20;16.33;;;;;;;;;;5099901;28;20113;-63
2022/06/10 07:59:30;;;;;;;26.65;17.05;;;;;;;;;;5106675;28;20369;-64
2022/06/10 08:01:56;;;;;;;25.35;15.75;;;;;;;;;;5105445;28;20043;-63
2022/06/10 08:04:22;;;;;;;31.55;17.17;;;;;;;;;;5104821;28;20050;-64
2022/06/10 08:06:49;;;;;;;37.65;17.20;;;;;;;;;;5102531;28;20044;-64
2022/06/10 08:09:17;;;;;;;27.35;15.32;;;;;;;;;;5103422;28;20117;-63
2022/06/10 08:11:43;;;;;;;24.48;14.48;;;;;;;;;;5107522;28;20092;-64
2022/06/10 08:14:09;;;;;;;28.45;15.15;;;;;;;;;;5107136;28;20139;-64
2022/06/10 08:16:37;;;;;;;29.67;15.82;;;;;;;;;;5104492;28;20124;-63
2022/06/10 08:19:03;;;;;;;24.67;16.20;;;;;;;;;;5102075;28;20036;-63
2022/06/10 08:24:15;;;;;;;31.23;17.88;;;;;;;;;;5096926;28;20055;-62
2022/06/10 08:26:41;;;;;;;31.23;16.33;;;;;;;;;;5108653;28;20039;-62
2022/06/10 08:29:07;;;;;;;33.92;16.50;;;;;;;;;;5107413;28;20068;-62
2022/06/10 08:31:34;;;;;;;24.20;15.88;;;;;;;;;;5106368;28;20400;-63
2022/06/10 08:34:01;;;;;;;20.17;15.10;;;;;;;;;;5087887;28;20389;-65
2022/06/10 08:36:27;;;;;;;30.40;16.65;;;;;;;;;;5108744;28;20134;-63
2022/06/10 08:38:53;;;;;;;34.95;15.93;;;;;;;;;;5105269;28;20364;-63
2022/06/10 08:41:28;;;;;;;24.92;14.65;;;;;;;;;;5104605;28;20395;-63
2022/06/10 08:44:00;;;;;;;30.23;14.35;;;;;;;;;;5104493;28;20579;-63
2022/06/10 08:46:30;;;;;;;25.80;14.82;;;;;;;;;;5106737;28;20129;-63
2022/06/10 08:49:02;;;;;;;22.48;13.02;;;;;;;;;;5108999;28;20032;-64
2022/06/10 08:51:29;;;;;;;28.08;13.77;;;;;;;;;;5106130;28;20043;-63
2022/06/10 08:53:58;;;;;;;24.40;11.20;;;;;;;;;;5089876;28;20112;-64
2022/06/10 08:56:33;;;;;;;23.23;11.20;;;;;;;;;;5106717;28;20047;-64
2022/06/10 08:59:03;;;;;;;26.15;11.88;;;;;;;;;;5107339;28;20480;-63
2022/06/10 09:01:30;;;;;;;25.38;11.02;;;;;;;;;;5102745;28;20051;-63
2022/06/10 09:04:02;;;;;;;24.00;11.93;;;;;;;;;;5103883;28;20028;-63
2022/06/10 09:06:31;;;;;;;22.77;11.50;;;;;;;;;;5108560;28;20054;-63
2022/06/10 09:09:02;;;;;;;25.05;10.43;;;;;;;;;;5106403;28;20043;-63
2022/06/10 09:11:36;;;;;;;19.05;10.10;;;;;;;;;;5107386;28;20050;-63
2022/06/10 09:14:09;;;;;;;21.92;9.30;;;;;;;;;;5106970;28;20112;-63
2022/06/10 09:16:35;;;;;;;21.40;9.23;;;;;;;;;;5082397;28;20090;-63
2022/06/10 09:19:13;;;;;;;18.10;9.20;;;;;;;;;;5101902;28;20395;-63
2022/06/10 09:21:46;;;;;;;25.90;10.05;;;;;;;;;;5109046;28;20063;-63
2022/06/10 09:24:17;;;;;;;20.80;9.70;;;;;;;;;;5104675;28;20122;-63
2022/06/10 09:26:46;;;;;;;24.77;10.55;;;;;;;;;;5109920;28;20300;-63
2022/06/10 09:29:14;;;;;;;24.77;10.07;;;;;;;;;;5087393;28;20051;-63
2022/06/10 09:31:50;;;;;;;23.85;10.32;;;;;;;;;;5106217;28;20379;-63
2022/06/10 09:34:23;;;;;;;24.88;10.80;;;;;;;;;;5103269;28;20119;-63
2022/06/10 09:36:58;;;;;;;21.40;10.40;;;;;;;;;;5109033;28;20047;-63
2022/06/10 09:42:17;;;;;;;19.92;9.65;;;;;;;;;;5102516;28;20408;-63
2022/06/10 09:44:50;;;;;;;23.63;9.98;;;;;;;;;;5101080;28;20479;-63
2022/06/10 09:47:28;;;;;;;25.88;10.70;;;;;;;;;;5106437;28;20410;-63
2022/06/10 09:50:03;;;;;;;30.25;12.55;;;;;;;;;;5106677;28;20043;-63
2022/06/10 09:52:36;;;;;;;22.88;11.57;;;;;;;;;;5105256;28;20127;-63
2022/06/10 09:55:10;;;;;;;18.67;10.13;;;;;;;;;;5105057;28;20052;-63
2022/06/10 09:57:36;;;;;;;;;;;;;;;;;;5104890;28;20486;-63
2022/06/10 10:00:05;;;;;;;24.60;9.57;;;;;;;;;;5110115;28;19927;-63
2022/06/10 10:02:41;;;;;;;23.77;8.05;;;;;;;;;;5103554;28;20040;-63
2022/06/10 10:05:20;;;;;;;21.73;8.63;;;;;;;;;;5100899;28;20048;-63
2022/06/10 10:07:53;;;;;;;22.92;8.55;;;;;;;;;;5104785;28;20147;-63
2022/06/10 10:10:19;;;;;;;21.75;8.93;;;;;;;;;;5103120;28;20127;-63
2022/06/10 10:12:51;;;;;;;23.65;10.50;;;;;;;;;;5099603;28;20044;-63
2022/06/10 10:15:24;;;;;;;23.55;10.02;;;;;;;;;;5106668;28;20056;-63
2022/06/10 10:17:57;;;;;;;31.10;9.73;;;;;;;;;;5079570;28;20127;-63
2022/06/10 10:20:26;;;;;;;24.75;9.65;;;;;;;;;;5099761;28;20184;-63
2022/06/10 10:23:02;;;;;;;23.27;10.88;;;;;;;;;;5105928;28;20093;-62
2022/06/10 10:25:29;;;;;;;24.38;10.70;;;;;;;;;;5099552;28;20553;-63
2022/06/10 10:27:55;;;;;;;19.73;10.95;;;;;;;;;;5105822;28;20044;-63
2022/06/10 10:30:24;;;;;;;20.23;11.05;;;;;;;;;;5103559;28;20153;-63
2022/06/10 10:32:58;;;;;;;16.25;10.88;;;;;;;;;;5105407;28;20047;-63
2022/06/10 10:35:26;;;;;;;23.70;10.48;;;;;;;;;;5082003;28;20079;-63
2022/06/10 10:37:55;;;;;;;23.20;11.57;;;;;;;;;;5101641;28;20110;-63
2022/06/10 10:40:22;;;;;;;24.58;11.82;;;;;;;;;;5100636;28;20040;-63
2022/06/10 10:42:51;;;;;;;17.58;11.05;;;;;;;;;;5099869;28;20036;-63
2022/06/10 10:45:20;;;;;;;21.15;11.15;;;;;;;;;;5084108;28;20094;-63
2022/06/10 10:47:50;;;;;;;19.88;12.20;;;;;;;;;;5106200;28;20119;-63
2022/06/10 10:50:18;;;;;;;22.98;14.73;;;;;;;;;;5102025;28;20107;-63
2022/06/10 10:52:45;;;;;;;22.20;14.23;;;;;;;;;;5082118;28;20076;-63
2022/06/10 10:55:31;;;;;;;23.98;15.80;;;;;;;;;;5099589;28;20451;-63
2022/06/10 10:58:06;;;;;;;26.40;16.42;;;;;;;;;;5096822;28;20085;-63
2022/06/10 11:00:37;;;;;;;24.40;16.67;;;;;;;;;;5097037;28;20241;-63
2022/06/10 11:03:04;;;;;;;27.20;18.27;;;;;;;;;;5097984;28;20130;-63
2022/06/10 11:05:35;;;;;;;20.02;12.18;;;;;;;;;;5082337;28;20105;-63
2022/06/10 11:08:07;;;;;;;17.65;9.48;;;;;;;;;;5102892;28;20786;-63
2022/06/10 11:10:34;;;;;;;20.75;11.30;;;;;;;;;;5082066;28;20513;-63
2022/06/10 11:13:02;;;;;;;14.55;9.38;;;;;;;;;;5100979;28;20032;-63
2022/06/10 11:15:29;;;;;;;14.55;9.00;;;;;;;;;;5084141;28;20101;-63
2022/06/10 11:17:57;;;;;;;16.25;8.07;;;;;;;;;;5100928;28;20040;-62
2022/06/10 11:20:28;;;;;;;16.00;8.38;;;;;;;;;;5085828;28;20048;-62
2022/06/10 11:23:26;;;;;;;17.60;9.85;;;;;;;;;;5071642;28;20044;-62
2022/06/10 11:26:05;;;;;;;21.85;13.02;;;;;;;;;;5090314;27;20097;-62
2022/06/10 11:28:35;;;;;;;23.02;11.40;;;;;;;;;;5098574;28;20040;-62
2022/06/10 11:31:01;;;;;;;21.63;13.13;;;;;;;;;;5079462;28;20051;-62
2022/06/10 11:33:32;;;;;;;20.00;12.05;;;;;;;;;;5098608;28;20427;-62
2022/06/10 11:36:01;;;;;;;25.33;12.80;;;;;;;;;;5098334;28;20399;-62
2022/06/10 11:38:29;;;;;;;22.20;12.30;;;;;;;;;;5089157;28;20032;-62
2022/06/10 11:40:57;;;;;;;20.48;11.75;;;;;;;;;;5099220;28;20062;-62
2022/06/10 11:43:25;;;;;;;17.58;9.48;;;;;;;;;;5098415;28;20044;-62
2022/06/10 11:45:54;;;;;;;18.55;9.57;;;;;;;;;;5107489;28;20047;-62
2022/06/10 11:48:20;;;;;;;18.63;9.43;;;;;;;;;;5102833;28;20581;-62
2022/06/10 11:50:46;;;;;;;22.83;9.73;;;;;;;;;;5107637;28;20042;-62
2022/06/10 11:53:18;;;;;;;16.83;9.50;;;;;;;;;;5105031;28;20043;-62
2022/06/10 11:55:45;;;;;;;17.88;9.30;;;;;;;;;;5103151;28;20169;-62
2022/06/10 12:01:13;;;;;;;21.52;9.70;;;;;;;;;;5104602;28;20043;-62
2022/06/10 12:03:45;;;;;;;15.15;9.48;;;;;;;;;;5096828;28;20098;-62
2022/06/10 12:06:18;;;;;;;12.60;6.95;;;;;;;;;;5110625;28;20053;-62
2022/06/10 12:08:44;;;;;;;19.05;6.50;;;;;;;;;;5091528;28;20047;-62
2022/06/10 12:11:10;;;;;;;12.57;7.35;;;;;;;;;;5107757;28;20047;-62
2022/06/10 12:13:39;;;;;;;20.63;7.30;;;;;;;;;;5106268;28;20040;-63
2022/06/10 12:16:07;;;;;;;15.32;8.13;;;;;;;;;;5098617;28;20691;-61
2022/06/10 12:18:39;;;;;;;13.75;7.82;;;;;;;;;;5103291;28;20051;-61
2022/06/10 12:21:05;;;;;;;21.60;8.38;;;;;;;;;;5101742;28;20062;-63
2022/06/10 12:23:34;;;;;;;16.75;8.00;;;;;;;;;;5104826;28;20510;-63
2022/06/10 12:26:03;;;;;;;15.10;7.57;;;;;;;;;;5104306;28;20124;-62
2022/06/10 12:28:35;;;;;;;18.80;7.68;;;;;;;;;;5101560;28;20081;-63
2022/06/10 12:31:08;;;;;;;13.57;7.00;;;;;;;;;;5102314;28;20145;-63
2022/06/10 12:33:34;;;;;;;15.77;5.97;;;;;;;;;;5110559;28;20052;-63
2022/06/10 12:36:00;;;;;;;13.13;5.70;;;;;;;;;;5089854;28;20043;-64
2022/06/10 12:38:29;;;;;;;12.85;4.80;;;;;;;;;;5106781;28;20035;-64
2022/06/10 12:40:56;;;;;;;8.07;3.85;;;;;;;;;;5109060;28;20048;-64
2022/06/10 12:43:24;;;;;;;11.43;4.13;;;;;;;;;;5104313;28;20107;-64
2022/06/10 12:45:53;;;;;;;8.75;3.55;;;;;;;;;;5085763;28;20113;-63
2022/06/10 12:48:23;;;;;;;10.43;3.88;;;;;;;;;;5101630;28;20047;-63
2022/06/10 12:50:53;;;;;;;8.30;3.72;;;;;;;;;;5100323;28;20054;-63
2022/06/10 12:53:19;;;;;;;9.13;2.88;;;;;;;;;;5085522;28;20032;-64
2022/06/10 12:55:48;;;;;;;8.27;2.95;;;;;;;;;;5103980;28;20039;-64
2022/06/10 12:58:33;;;;;;;8.90;2.67;;;;;;;;;;5109346;28;20387;-63
2022/06/10 13:01:18;;;;;;;8.82;2.63;;;;;;;;;;5107046;28;20035;-63
2022/06/10 13:03:46;;;;;;;10.10;2.97;;;;;;;;;;5105457;28;20055;-63
2022/06/10 13:06:29;;;;;;;7.55;2.38;;;;;;;;;;5106331;28;20410;-64
2022/06/10 13:08:58;;;;;;;5.93;2.15;;;;;;;;;;5105183;28;20418;-63
2022/06/10 13:11:32;;;;;;;6.50;2.42;;;;;;;;;;5099325;28;20090;-64
2022/06/10 13:14:12;;;;;;;6.60;2.40;;;;;;;;;;5087326;28;20047;-64
2022/06/10 13:16:42;;;;;;;9.68;2.13;;;;;;;;;;5100706;28;20467;-64
2022/06/10 13:19:27;;;;;;;6.53;1.95;;;;;;;;;;5105994;28;20090;-63
2022/06/10 13:21:53;;;;;;;10.25;2.30;;;;;;;;;;5104798;28;20469;-64
2022/06/10 13:24:20;;;;;;;8.27;2.25;;;;;;;;;;5103120;28;20048;-64
2022/06/10 13:26:46;;;;;;;8.35;2.50;;;;;;;;;;5103284;28;20057;-64
2022/06/10 13:29:16;;;;;;;8.38;2.08;;;;;;;;;;5082628;28;20144;-64
2022/06/10 13:31:52;;;;;;;11.25;3.67;;;;;;;;;;5085517;28;20098;-64
2022/06/10 13:34:21;;;;;;;8.70;1.90;;;;;;;;;;5107157;28;20407;-63
2022/06/10 13:36:51;;;;;;;9.52;2.33;;;;;;;;;;5086829;28;20052;-64
2022/06/10 13:39:24;;;;;;;12.40;2.45;;;;;;;;;;5081657;28;20126;-63
2022/06/10 13:41:52;;;;;;;8.07;2.78;;;;;;;;;;5104933;28;20043;-64
2022/06/10 13:44:23;;;;;;;10.85;2.90;;;;;;;;;;5104868;28;20048;-64
2022/06/10 13:46:49;;;;;;;11.45;3.17;;;;;;;;;;5106893;28;20036;-64
2022/06/10 13:49:18;;;;;;;10.95;2.80;;;;;;;;;;5105885;28;20123;-63
2022/06/10 13:51:50;;;;;;;8.32;2.92;;;;;;;;;;5110321;28;20519;-63
2022/06/10 13:54:18;;;;;;;9.68;2.80;;;;;;;;;;5106714;28;20047;-63
2022/06/10 13:56:45;;;;;;;9.68;2.67;;;;;;;;;;5108158;28;20043;-63
2022/06/10 13:59:29;;;;;;;11.27;3.20;;;;;;;;;;5106289;28;20043;-64
2022/06/10 14:01:57;;;;;;;11.88;3.15;;;;;;;;;;5104718;28;20043;-64
2022/06/10 14:04:25;;;;;;;8.35;2.72;;;;;;;;;;5105926;28;20043;-63
2022/06/10 14:06:53;;;;;;;11.73;3.22;;;;;;;;;;5104533;28;20558;-63
2022/06/10 14:09:23;;;;;;;8.50;2.60;;;;;;;;;;5099012;28;20082;-63
2022/06/10 14:12:17;;;;;;;11.82;2.95;;;;;;;;;;5088009;28;20048;-63
2022/06/10 14:14:44;;;;;;;8.95;2.60;;;;;;;;;;5099893;28;20043;-64
2022/06/10 14:17:10;;;;;;;8.15;2.47;;;;;;;;;;5102792;28;20044;-63
2022/06/10 14:19:40;;;;;;;8.00;2.50;;;;;;;;;;5103381;28;20110;-63
2022/06/10 14:22:08;;;;;;;10.48;2.92;;;;;;;;;;5098545;28;20186;-63
2022/06/10 14:24:34;;;;;;;11.55;2.60;;;;;;;;;;5087722;28;20087;-64
2022/06/10 14:27:04;;;;;;;11.00;3.08;;;;;;;;;;5097327;28;20098;-63
2022/06/10 14:29:44;;;;;;;12.63;3.45;;;;;;;;;;5104252;28;20432;-63
2022/06/10 14:32:17;;;;;;;11.90;3.38;;;;;;;;;;5104211;28;20475;-64
2022/06/10 14:34:44;;;;;;;11.50;3.83;;;;;;;;;;5100734;28;20059;-63
2022/06/10 14:37:27;;;;;;;12.93;3.53;;;;;;;;;;5083647;28;20043;-64
2022/06/10 14:40:05;;;;;;;10.82;3.17;;;;;;;;;;5096170;28;20043;-64
2022/06/10 14:42:32;;;;;;;10.18;2.97;;;;;;;;;;5102296;28;20339;-64
2022/06/10 14:44:59;;;;;;;12.77;3.80;;;;;;;;;;5080706;28;20044;-63
2022/06/10 14:47:27;;;;;;;11.98;3.53;;;;;;;;;;5100263;28;20075;-63
2022/06/10 14:49:58;;;;;;;17.98;3.85;;;;;;;;;;5106315;28;20206;-64
2022/06/10 14:52:28;;;;;;;12.63;3.22;;;;;;;;;;5105279;28;20044;-63
2022/06/10 14:54:55;;;;;;;13.48;3.72;;;;;;;;;;5103240;28;20050;-63
2022/06/10 14:57:24;;;;;;;14.35;3.47;;;;;;;;;;5083060;28;20046;-63